< Typhoon 201413 2014 Season Typhoon 201415 >
Typhoon 201414 (FENGSHEN)
General InformationTrack Information on Google MapsDetailed Wind InformationForecast History on Google MapsAccess Analytics MapList of All Images || NewsDisaster Info.WeblogTrackbackTyphoon FrontTwiphoonTyphoon Now!Typhoon ImaginationDisaster Info. XMLResourceGoogle EarthGE AnimationAtom FeedGeoJSON
Detalied Best Track (Time Zone = UTC)
Year Month Day Hour Lat. Long. Pressure (hPa) Wind (kt) Class Image Chart
2014 9 5 12 20.3 127.6 1004 0 2 Image Chart
2014 9 5 18 22.2 126.8 1004 0 2 Image Chart
2014 9 6 00 23.6 126.6 1004 0 2 Image Chart
2014 9 6 06 24.5 126.7 1004 0 2 Image Chart
2014 9 6 12 25.0 127.9 1002 0 2 Image Chart
2014 9 6 18 26.3 128.8 998 35 3 Image Chart
2014 9 7 00 27.2 129.8 996 35 3 Image Chart
2014 9 7 06 27.4 130.9 994 40 3 Image Chart
2014 9 7 12 27.9 132.8 992 45 3 Image Chart
2014 9 7 18 28.4 133.7 985 50 4 Image Chart
2014 9 8 00 28.9 135.6 980 55 4 Image Chart
2014 9 8 06 30.0 137.3 975 60 4 Image Chart
2014 9 8 12 30.9 138.6 975 60 4 Image Chart
2014 9 8 18 31.6 140.4 975 60 4 Image Chart
2014 9 9 00 32.6 143.1 975 60 4 Image Chart
2014 9 9 06 33.1 144.8 975 60 4 Image Chart
2014 9 9 12 34.0 146.8 980 55 4 Image Chart
2014 9 9 18 35.0 148.9 980 55 4 Image Chart
2014 9 10 00 35.8 152.6 985 50 4 Image Chart
2014 9 10 06 37.2 156.0 985 50 4 Image Chart
2014 9 10 12 38.5 159.3 990 45 3 Image Chart
2014 9 10 18 39.7 163.6 990 0 6 Image Chart
2014 9 11 00 40.5 168.0 992 0 6 Image Chart
Japan Meteorological Agency Best Track Data | Correction Date : 2014-10-17
< Typhoon 201413 2014 Season Typhoon 201415 >

Help